Van Buren Township, Michigan
Current Conditions -  °F | °C
As of 9:53 PM on Tuesday 21 Oct 2014 (Local Time) from KYIP Reporting Station
Overcast Overcast  
Wind Chill: 43°   Ceiling: 2300
Heat Index: 48°   Visibility: 10mi
Dew Point: 35°   Wind: 10mph
Humidity: 61%   Direction: 360°N
Pressure: 30.21"   Gusts: NA
Location:  42.1781°N, 83.4854°W
Report Text: KYIP 220153Z AUTO 36009KT 10SM OVC023 09/02 A3021 RMK AO2 SLP229 T00890017 TSNO
Loading
Personal Weather Stations






























Interactive Weather Map
Tropical Storm Tracking
New forecast layout! Learn more

10-Day Weather Forecast

Advertisements
Track Severe Weather on mobile